sensor_id;sensor_type;location;lat;lon;timestamp;pressure;altitude;pressure_sealevel;temperature
80422;BMP280;69763;50.182;9.144;2023-11-21T00:01:10;99341.44;;;6.77
80422;BMP280;69763;50.182;9.144;2023-11-21T00:03:36;99337.28;;;6.76
80422;BMP280;69763;50.182;9.144;2023-11-21T00:06:01;99335.81;;;6.75
80422;BMP280;69763;50.182;9.144;2023-11-21T00:08:27;99345.84;;;6.74
80422;BMP280;69763;50.182;9.144;2023-11-21T00:10:53;99343.91;;;6.75
80422;BMP280;69763;50.182;9.144;2023-11-21T00:13:18;99350.75;;;6.76
80422;BMP280;69763;50.182;9.144;2023-11-21T00:15:45;99349.53;;;6.77
80422;BMP280;69763;50.182;9.144;2023-11-21T00:18:10;99347.56;;;6.77
80422;BMP280;69763;50.182;9.144;2023-11-21T00:20:36;99342.91;;;6.78
80422;BMP280;69763;50.182;9.144;2023-11-21T00:23:01;99344.88;;;6.77
80422;BMP280;69763;50.182;9.144;2023-11-21T00:25:26;99342.19;;;6.77
80422;BMP280;69763;50.182;9.144;2023-11-21T00:27:52;99344.13;;;6.77
80422;BMP280;69763;50.182;9.144;2023-11-21T00:30:17;99344.13;;;6.77
80422;BMP280;69763;50.182;9.144;2023-11-21T00:32:44;99351.00;;;6.78
80422;BMP280;69763;50.182;9.144;2023-11-21T00:35:09;99347.56;;;6.77
80422;BMP280;69763;50.182;9.144;2023-11-21T00:37:35;99344.88;;;6.77
80422;BMP280;69763;50.182;9.144;2023-11-21T00:40:00;99348.78;;;6.76
80422;BMP280;69763;50.182;9.144;2023-11-21T00:42:25;99350.75;;;6.76
80422;BMP280;69763;50.182;9.144;2023-11-21T00:44:51;99346.59;;;6.75
80422;BMP280;69763;50.182;9.144;2023-11-21T00:47:16;99341.94;;;6.75
80422;BMP280;69763;50.182;9.144;2023-11-21T00:49:43;99345.38;;;6.76
80422;BMP280;69763;50.182;9.144;2023-11-21T00:52:08;99338.50;;;6.75
80422;BMP280;69763;50.182;9.144;2023-11-21T00:54:33;99337.28;;;6.76
80422;BMP280;69763;50.182;9.144;2023-11-21T00:56:59;99344.13;;;6.77
80422;BMP280;69763;50.182;9.144;2023-11-21T00:59:24;99348.78;;;6.76
80422;BMP280;69763;50.182;9.144;2023-11-21T01:01:50;99352.22;;;6.77
80422;BMP280;69763;50.182;9.144;2023-11-21T01:04:15;99353.94;;;6.74
80422;BMP280;69763;50.182;9.144;2023-11-21T01:06:42;99350.50;;;6.74
80422;BMP280;69763;50.182;9.144;2023-11-21T01:09:07;99359.09;;;6.72
80422;BMP280;69763;50.182;9.144;2023-11-21T01:11:32;99356.41;;;6.72
80422;BMP280;69763;50.182;9.144;2023-11-21T01:13:58;99358.88;;;6.70
80422;BMP280;69763;50.182;9.144;2023-11-21T01:16:23;99367.69;;;6.71
80422;BMP280;69763;50.182;9.144;2023-11-21T01:18:48;99362.78;;;6.69
80422;BMP280;69763;50.182;9.144;2023-11-21T01:21:14;99365.50;;;6.69
80422;BMP280;69763;50.182;9.144;2023-11-21T01:23:40;99368.69;;;6.68
80422;BMP280;69763;50.182;9.144;2023-11-21T01:26:06;99365.97;;;6.68
80422;BMP280;69763;50.182;9.144;2023-11-21T01:28:31;99376.75;;;6.68
80422;BMP280;69763;50.182;9.144;2023-11-21T01:30:56;99369.41;;;6.68
80422;BMP280;69763;50.182;9.144;2023-11-21T01:33:22;99378.22;;;6.69
80422;BMP280;69763;50.182;9.144;2023-11-21T01:35:47;99376.25;;;6.69
80422;BMP280;69763;50.182;9.144;2023-11-21T01:38:12;99376.25;;;6.69
80422;BMP280;69763;50.182;9.144;2023-11-21T01:40:39;99370.16;;;6.69
80422;BMP280;69763;50.182;9.144;2023-11-21T01:43:05;99373.56;;;6.69
80422;BMP280;69763;50.182;9.144;2023-11-21T01:45:33;99371.59;;;6.70
80422;BMP280;69763;50.182;9.144;2023-11-21T01:47:59;99367.44;;;6.69
80422;BMP280;69763;50.182;9.144;2023-11-21T01:50:24;99359.88;;;6.67
80422;BMP280;69763;50.182;9.144;2023-11-21T01:52:50;99363.78;;;6.66
80422;BMP280;69763;50.182;9.144;2023-11-21T01:55:17;99363.78;;;6.66
80422;BMP280;69763;50.182;9.144;2023-11-21T01:57:44;99362.31;;;6.65
80422;BMP280;69763;50.182;9.144;2023-11-21T02:00:11;99366.72;;;6.63
80422;BMP280;69763;50.182;9.144;2023-11-21T02:02:37;99363.84;;;6.61
80422;BMP280;69763;50.182;9.144;2023-11-21T02:05:03;99370.44;;;6.60
80422;BMP280;69763;50.182;9.144;2023-11-21T02:07:28;99377.53;;;6.57
80422;BMP280;69763;50.182;9.144;2023-11-21T02:09:54;99378.78;;;6.56
80422;BMP280;69763;50.182;9.144;2023-11-21T02:12:19;99377.81;;;6.53
80422;BMP280;69763;50.182;9.144;2023-11-21T02:14:46;99382.69;;;6.55
80422;BMP280;69763;50.182;9.144;2023-11-21T02:17:11;99391.00;;;6.57
80422;BMP280;69763;50.182;9.144;2023-11-21T02:19:37;99390.03;;;6.54
80422;BMP280;69763;50.182;9.144;2023-11-21T02:22:02;99389.31;;;6.54
80422;BMP280;69763;50.182;9.144;2023-11-21T02:24:29;99387.84;;;6.53
80422;BMP280;69763;50.182;9.144;2023-11-21T02:26:54;99392.72;;;6.54
80422;BMP280;69763;50.182;9.144;2023-11-21T02:29:20;99394.94;;;6.56
80422;BMP280;69763;50.182;9.144;2023-11-21T02:31:46;99391.75;;;6.58
80422;BMP280;69763;50.182;9.144;2023-11-21T02:34:11;99392.72;;;6.60
80422;BMP280;69763;50.182;9.144;2023-11-21T02:36:37;99397.81;;;6.64
80422;BMP280;69763;50.182;9.144;2023-11-21T02:39:02;99398.06;;;6.66
80422;BMP280;69763;50.182;9.144;2023-11-21T02:41:29;99394.13;;;6.67
80422;BMP280;69763;50.182;9.144;2023-11-21T02:43:54;99395.84;;;6.64
80422;BMP280;69763;50.182;9.144;2023-11-21T02:46:20;99393.16;;;6.64
80422;BMP280;69763;50.182;9.144;2023-11-21T02:48:45;99385.59;;;6.63
80422;BMP280;69763;50.182;9.144;2023-11-21T02:51:10;99390.22;;;6.62
80422;BMP280;69763;50.182;9.144;2023-11-21T02:53:36;99388.06;;;6.61
80422;BMP280;69763;50.182;9.144;2023-11-21T02:56:01;99389.28;;;6.60
80422;BMP280;69763;50.182;9.144;2023-11-21T02:58:28;99383.16;;;6.59
80422;BMP280;69763;50.182;9.144;2023-11-21T03:00:53;99384.41;;;6.58
80422;BMP280;69763;50.182;9.144;2023-11-21T03:03:18;99376.06;;;6.56
80422;BMP280;69763;50.182;9.144;2023-11-21T03:05:44;99378.78;;;6.56
80422;BMP280;69763;50.182;9.144;2023-11-21T03:08:09;99377.81;;;6.53
80422;BMP280;69763;50.182;9.144;2023-11-21T03:10:34;99377.59;;;6.51
80422;BMP280;69763;50.182;9.144;2023-11-21T03:13:00;99380.03;;;6.49
80422;BMP280;69763;50.182;9.144;2023-11-21T03:15:26;99381.25;;;6.48
80422;BMP280;69763;50.182;9.144;2023-11-21T03:17:52;99375.38;;;6.50
80422;BMP280;69763;50.182;9.144;2023-11-21T03:20:17;99380.28;;;6.51
80422;BMP280;69763;50.182;9.144;2023-11-21T03:22:43;99382.97;;;6.51
80422;BMP280;69763;50.182;9.144;2023-11-21T03:25:09;99386.88;;;6.50
80422;BMP280;69763;50.182;9.144;2023-11-21T03:27:34;99389.06;;;6.52
80422;BMP280;69763;50.182;9.144;2023-11-21T03:29:59;99385.66;;;6.51
80422;BMP280;69763;50.182;9.144;2023-11-21T03:32:26;99391.03;;;6.51
80422;BMP280;69763;50.182;9.144;2023-11-21T03:34:56;99386.88;;;6.50
80422;BMP280;69763;50.182;9.144;2023-11-21T03:37:21;99392.28;;;6.50
80422;BMP280;69763;50.182;9.144;2023-11-21T03:39:47;99394.97;;;6.50
80422;BMP280;69763;50.182;9.144;2023-11-21T03:42:12;99391.75;;;6.52
80422;BMP280;69763;50.182;9.144;2023-11-21T03:44:37;99401.28;;;6.53
80422;BMP280;69763;50.182;9.144;2023-11-21T03:47:03;99403.00;;;6.56
80422;BMP280;69763;50.182;9.144;2023-11-21T03:49:30;99406.44;;;6.57
80422;BMP280;69763;50.182;9.144;2023-11-21T03:51:56;99407.16;;;6.57
80422;BMP280;69763;50.182;9.144;2023-11-21T03:54:21;99407.16;;;6.57
80422;BMP280;69763;50.182;9.144;2023-11-21T03:56:46;99405.19;;;6.58
80422;BMP280;69763;50.182;9.144;2023-11-21T03:59:12;99413.28;;;6.58
80422;BMP280;69763;50.182;9.144;2023-11-21T04:01:37;99412.78;;;6.59
80422;BMP280;69763;50.182;9.144;2023-11-21T04:04:03;99411.56;;;6.60
80422;BMP280;69763;50.182;9.144;2023-11-21T04:06:30;99420.38;;;6.61
80422;BMP280;69763;50.182;9.144;2023-11-21T04:08:55;99427.94;;;6.62
80422;BMP280;69763;50.182;9.144;2023-11-21T04:11:20;99416.66;;;6.64
80422;BMP280;69763;50.182;9.144;2023-11-21T04:13:46;99428.91;;;6.65
80422;BMP280;69763;50.182;9.144;2023-11-21T04:16:11;99424.25;;;6.65
80422;BMP280;69763;50.182;9.144;2023-11-21T04:18:37;99426.47;;;6.67
80422;BMP280;69763;50.182;9.144;2023-11-21T04:21:03;99432.56;;;6.67
80422;BMP280;69763;50.182;9.144;2023-11-21T04:23:29;99436.50;;;6.66
80422;BMP280;69763;50.182;9.144;2023-11-21T04:25:55;99435.03;;;6.65
80422;BMP280;69763;50.182;9.144;2023-11-21T04:28:20;99436.50;;;6.66
80422;BMP280;69763;50.182;9.144;2023-11-21T04:30:45;99432.34;;;6.65
80422;BMP280;69763;50.182;9.144;2023-11-21T04:33:11;99431.34;;;6.63
80422;BMP280;69763;50.182;9.144;2023-11-21T04:35:36;99436.00;;;6.62
80422;BMP280;69763;50.182;9.144;2023-11-21T04:38:02;99436.75;;;6.63
80422;BMP280;69763;50.182;9.144;2023-11-21T04:40:29;99438.94;;;6.64
80422;BMP280;69763;50.182;9.144;2023-11-21T04:42:54;99439.19;;;6.66
80422;BMP280;69763;50.182;9.144;2023-11-21T04:45:19;99442.13;;;6.68
80422;BMP280;69763;50.182;9.144;2023-11-21T04:47:44;99443.59;;;6.69
80422;BMP280;69763;50.182;9.144;2023-11-21T04:50:10;99440.91;;;6.69
80422;BMP280;69763;50.182;9.144;2023-11-21T04:52:35;99450.19;;;6.68
80422;BMP280;69763;50.182;9.144;2023-11-21T04:55:01;99442.63;;;6.67
80422;BMP280;69763;50.182;9.144;2023-11-21T04:57:28;99439.91;;;6.67
80422;BMP280;69763;50.182;9.144;2023-11-21T04:59:53;99446.03;;;6.67
80422;BMP280;69763;50.182;9.144;2023-11-21T05:02:19;99454.38;;;6.69
80422;BMP280;69763;50.182;9.144;2023-11-21T05:04:44;99461.22;;;6.70
80422;BMP280;69763;50.182;9.144;2023-11-21T05:07:09;99464.84;;;6.73
80422;BMP280;69763;50.182;9.144;2023-11-21T05:09:35;99463.63;;;6.74
80422;BMP280;69763;50.182;9.144;2023-11-21T05:12:00;99479.31;;;6.75
80422;BMP280;69763;50.182;9.144;2023-11-21T05:14:27;99475.88;;;6.75
80422;BMP280;69763;50.182;9.144;2023-11-21T05:16:52;99483.47;;;6.76
80422;BMP280;69763;50.182;9.144;2023-11-21T05:19:18;99479.31;;;6.75
80422;BMP280;69763;50.182;9.144;2023-11-21T05:21:43;99480.03;;;6.76
80422;BMP280;69763;50.182;9.144;2023-11-21T05:24:08;99482.00;;;6.75
80422;BMP280;69763;50.182;9.144;2023-11-21T05:26:34;99485.41;;;6.76
80422;BMP280;69763;50.182;9.144;2023-11-21T05:28:59;99484.94;;;6.77
80422;BMP280;69763;50.182;9.144;2023-11-21T05:31:26;99493.00;;;6.77
80422;BMP280;69763;50.182;9.144;2023-11-21T05:33:51;99495.69;;;6.77
80422;BMP280;69763;50.182;9.144;2023-11-21T05:36:17;99497.66;;;6.77
80422;BMP280;69763;50.182;9.144;2023-11-21T05:38:42;99499.63;;;6.76
80422;BMP280;69763;50.182;9.144;2023-11-21T05:41:07;99503.31;;;6.73
80422;BMP280;69763;50.182;9.144;2023-11-21T05:43:33;99503.09;;;6.71
80422;BMP280;69763;50.182;9.144;2023-11-21T05:45:58;99504.81;;;6.69
80422;BMP280;69763;50.182;9.144;2023-11-21T05:48:25;99499.16;;;6.67
80422;BMP280;69763;50.182;9.144;2023-11-21T05:50:50;99500.41;;;6.66
80422;BMP280;69763;50.182;9.144;2023-11-21T05:53:15;99499.16;;;6.67
80422;BMP280;69763;50.182;9.144;2023-11-21T05:55:41;99510.69;;;6.67
80422;BMP280;69763;50.182;9.144;2023-11-21T05:58:06;99504.56;;;6.67
80422;BMP280;69763;50.182;9.144;2023-11-21T06:00:31;99511.66;;;6.64
80422;BMP280;69763;50.182;9.144;2023-11-21T06:02:57;99507.78;;;6.60
80422;BMP280;69763;50.182;9.144;2023-11-21T06:05:24;99512.41;;;6.53
80422;BMP280;69763;50.182;9.144;2023-11-21T06:07:50;99520.78;;;6.44
80422;BMP280;69763;50.182;9.144;2023-11-21T06:10:16;99514.44;;;6.36
80422;BMP280;69763;50.182;9.144;2023-11-21T06:12:41;99518.41;;;6.30
80422;BMP280;69763;50.182;9.144;2023-11-21T06:15:08;99528.88;;;6.33
80422;BMP280;69763;50.182;9.144;2023-11-21T06:17:33;99538.69;;;6.31
80422;BMP280;69763;50.182;9.144;2023-11-21T06:19:59;99544.56;;;6.29
80422;BMP280;69763;50.182;9.144;2023-11-21T06:22:26;99546.75;;;6.25
80422;BMP280;69763;50.182;9.144;2023-11-21T06:24:51;99547.75;;;6.22
80422;BMP280;69763;50.182;9.144;2023-11-21T06:27:16;99550.22;;;6.20
80422;BMP280;69763;50.182;9.144;2023-11-21T06:29:42;99549.69;;;6.22
80422;BMP280;69763;50.182;9.144;2023-11-21T06:32:07;99552.38;;;6.22
80422;BMP280;69763;50.182;9.144;2023-11-21T06:34:32;99563.16;;;6.22
80422;BMP280;69763;50.182;9.144;2023-11-21T06:36:58;99571.72;;;6.26
80422;BMP280;69763;50.182;9.144;2023-11-21T06:39:24;99581.00;;;6.36
80422;BMP280;69763;50.182;9.144;2023-11-21T06:41:50;99575.84;;;6.43
80422;BMP280;69763;50.182;9.144;2023-11-21T06:44:15;99581.72;;;6.47
80422;BMP280;69763;50.182;9.144;2023-11-21T06:46:41;99586.63;;;6.49
80422;BMP280;69763;50.182;9.144;2023-11-21T06:49:06;99590.78;;;6.50
80422;BMP280;69763;50.182;9.144;2023-11-21T06:51:32;99587.59;;;6.51
80422;BMP280;69763;50.182;9.144;2023-11-21T06:53:57;99583.16;;;6.54
80422;BMP280;69763;50.182;9.144;2023-11-21T06:56:24;99593.94;;;6.54
80422;BMP280;69763;50.182;9.144;2023-11-21T06:58:49;99594.66;;;6.54
80422;BMP280;69763;50.182;9.144;2023-11-21T07:01:14;99596.88;;;6.56
80422;BMP280;69763;50.182;9.144;2023-11-21T07:03:40;99608.38;;;6.57
80422;BMP280;69763;50.182;9.144;2023-11-21T07:06:05;99608.63;;;6.59
80422;BMP280;69763;50.182;9.144;2023-11-21T07:08:31;99613.28;;;6.58
80422;BMP280;69763;50.182;9.144;2023-11-21T07:10:56;99610.09;;;6.60
80422;BMP280;69763;50.182;9.144;2023-11-21T07:13:23;99614.25;;;6.61
80422;BMP280;69763;50.182;9.144;2023-11-21T07:15:48;99624.53;;;6.62
80422;BMP280;69763;50.182;9.144;2023-11-21T07:18:14;99616.44;;;6.62
80422;BMP280;69763;50.182;9.144;2023-11-21T07:20:39;99629.41;;;6.64
80422;BMP280;69763;50.182;9.144;2023-11-21T07:23:04;99641.16;;;6.66
80422;BMP280;69763;50.182;9.144;2023-11-21T07:25:30;99642.16;;;6.69
80422;BMP280;69763;50.182;9.144;2023-11-21T07:27:55;99636.78;;;6.69
80422;BMP280;69763;50.182;9.144;2023-11-21T07:30:22;99646.31;;;6.70
80422;BMP280;69763;50.182;9.144;2023-11-21T07:32:47;99644.59;;;6.72
80422;BMP280;69763;50.182;9.144;2023-11-21T07:35:13;99649.97;;;6.72
80422;BMP280;69763;50.182;9.144;2023-11-21T07:37:38;99644.59;;;6.72
80422;BMP280;69763;50.182;9.144;2023-11-21T07:40:05;99654.88;;;6.74
80422;BMP280;69763;50.182;9.144;2023-11-21T07:42:30;99658.53;;;6.76
80422;BMP280;69763;50.182;9.144;2023-11-21T07:44:55;99660.00;;;6.77
80422;BMP280;69763;50.182;9.144;2023-11-21T07:47:22;99665.91;;;6.81
80422;BMP280;69763;50.182;9.144;2023-11-21T07:49:47;99663.66;;;6.85
80422;BMP280;69763;50.182;9.144;2023-11-21T07:52:13;99668.06;;;6.88
80422;BMP280;69763;50.182;9.144;2023-11-21T07:54:38;99663.88;;;6.93
80422;BMP280;69763;50.182;9.144;2023-11-21T07:57:04;99667.06;;;6.97
80422;BMP280;69763;50.182;9.144;2023-11-21T07:59:29;99674.38;;;7.02
80422;BMP280;69763;50.182;9.144;2023-11-21T08:01:54;99676.09;;;7.05
80422;BMP280;69763;50.182;9.144;2023-11-21T08:04:21;99665.81;;;7.09
80422;BMP280;69763;50.182;9.144;2023-11-21T08:06:46;99679.25;;;7.15
80422;BMP280;69763;50.182;9.144;2023-11-21T08:09:12;99672.41;;;7.19
80422;BMP280;69763;50.182;9.144;2023-11-21T08:11:37;99676.28;;;7.24
80422;BMP280;69763;50.182;9.144;2023-11-21T08:14:03;99680.94;;;7.29
80422;BMP280;69763;50.182;9.144;2023-11-21T08:16:28;99686.31;;;7.35
80422;BMP280;69763;50.182;9.144;2023-11-21T08:18:53;99694.13;;;7.38
80422;BMP280;69763;50.182;9.144;2023-11-21T08:21:20;99689.69;;;7.46
80422;BMP280;69763;50.182;9.144;2023-11-21T08:23:45;99686.69;;;7.55
80422;BMP280;69763;50.182;9.144;2023-11-21T08:26:11;99690.06;;;7.67
80422;BMP280;69763;50.182;9.144;2023-11-21T08:28:36;99691.00;;;7.75
80422;BMP280;69763;50.182;9.144;2023-11-21T08:31:01;99685.56;;;7.86
80422;BMP280;69763;50.182;9.144;2023-11-21T08:33:27;99700.19;;;7.96
80422;BMP280;69763;50.182;9.144;2023-11-21T08:35:52;99701.38;;;8.01
80422;BMP280;69763;50.182;9.144;2023-11-21T08:38:19;99697.44;;;8.02
80422;BMP280;69763;50.182;9.144;2023-11-21T08:40:44;99703.38;;;8.00
80422;BMP280;69763;50.182;9.144;2023-11-21T08:43:09;99706.28;;;8.02
80422;BMP280;69763;50.182;9.144;2023-11-21T08:45:35;99713.38;;;8.05
80422;BMP280;69763;50.182;9.144;2023-11-21T08:48:00;99714.34;;;8.08
80422;BMP280;69763;50.182;9.144;2023-11-21T08:50:25;99721.94;;;8.09
80422;BMP280;69763;50.182;9.144;2023-11-21T08:52:51;99727.34;;;8.09
80422;BMP280;69763;50.182;9.144;2023-11-21T08:55:18;99734.44;;;8.13
80422;BMP280;69763;50.182;9.144;2023-11-21T08:57:44;99742.03;;;8.14
80422;BMP280;69763;50.182;9.144;2023-11-21T09:00:10;99738.59;;;8.14
80422;BMP280;69763;50.182;9.144;2023-11-21T09:02:36;99756.03;;;8.13
80422;BMP280;69763;50.182;9.144;2023-11-21T09:05:01;99752.59;;;8.12
80422;BMP280;69763;50.182;9.144;2023-11-21T09:07:26;99756.03;;;8.13
80422;BMP280;69763;50.182;9.144;2023-11-21T09:09:52;99769.53;;;8.13
80422;BMP280;69763;50.182;9.144;2023-11-21T09:12:18;99767.56;;;8.13
80422;BMP280;69763;50.182;9.144;2023-11-21T09:14:44;99773.22;;;8.15
80422;BMP280;69763;50.182;9.144;2023-11-21T09:17:09;99767.06;;;8.15
80422;BMP280;69763;50.182;9.144;2023-11-21T09:19:34;99767.31;;;8.17
80422;BMP280;69763;50.182;9.144;2023-11-21T09:22:00;99772.13;;;8.29
80422;BMP280;69763;50.182;9.144;2023-11-21T09:24:25;99776.50;;;8.38
80422;BMP280;69763;50.182;9.144;2023-11-21T09:26:50;99781.91;;;8.38
80422;BMP280;69763;50.182;9.144;2023-11-21T09:29:17;99781.22;;;8.32
80422;BMP280;69763;50.182;9.144;2023-11-21T09:31:43;99783.72;;;8.24
80422;BMP280;69763;50.182;9.144;2023-11-21T09:34:08;99793.38;;;8.08
80422;BMP280;69763;50.182;9.144;2023-11-21T09:36:33;99790.78;;;7.86
80422;BMP280;69763;50.182;9.144;2023-11-21T09:38:59;99794.03;;;7.68
80422;BMP280;69763;50.182;9.144;2023-11-21T09:41:31;99798.28;;;7.47
80422;BMP280;69763;50.182;9.144;2023-11-21T09:43:59;99798.09;;;7.28
80422;BMP280;69763;50.182;9.144;2023-11-21T09:46:27;99802.25;;;7.12
80422;BMP280;69763;50.182;9.144;2023-11-21T09:48:53;99807.44;;;6.99
80422;BMP280;69763;50.182;9.144;2023-11-21T09:51:19;99808.16;;;6.88
80422;BMP280;69763;50.182;9.144;2023-11-21T09:53:49;99799.13;;;6.80
80422;BMP280;69763;50.182;9.144;2023-11-21T09:56:15;99805.25;;;6.81
80422;BMP280;69763;50.182;9.144;2023-11-21T09:58:40;99800.56;;;6.87
80422;BMP280;69763;50.182;9.144;2023-11-21T10:01:06;99802.03;;;6.93
80422;BMP280;69763;50.182;9.144;2023-11-21T10:03:35;99807.91;;;7.03
80422;BMP280;69763;50.182;9.144;2023-11-21T10:06:01;99798.34;;;7.13
80422;BMP280;69763;50.182;9.144;2023-11-21T10:08:28;99796.63;;;7.27
80422;BMP280;69763;50.182;9.144;2023-11-21T10:10:55;99805.63;;;7.41
80422;BMP280;69763;50.182;9.144;2023-11-21T10:13:20;99803.91;;;7.54
80422;BMP280;69763;50.182;9.144;2023-11-21T10:15:49;99805.06;;;7.70
80422;BMP280;69763;50.182;9.144;2023-11-21T10:18:15;99806.97;;;7.86
80422;BMP280;69763;50.182;9.144;2023-11-21T10:20:42;99812.28;;;8.08
80422;BMP280;69763;50.182;9.144;2023-11-21T10:23:08;99805.69;;;8.39
80422;BMP280;69763;50.182;9.144;2023-11-21T10:25:34;99817.75;;;8.74
80422;BMP280;69763;50.182;9.144;2023-11-21T10:28:01;99812.81;;;9.02
80422;BMP280;69763;50.182;9.144;2023-11-21T10:30:32;99820.59;;;9.11
80422;BMP280;69763;50.182;9.144;2023-11-21T10:32:59;99817.00;;;9.27
80422;BMP280;69763;50.182;9.144;2023-11-21T10:35:24;99833.47;;;9.48
80422;BMP280;69763;50.182;9.144;2023-11-21T10:37:59;99827.94;;;9.41
80422;BMP280;69763;50.182;9.144;2023-11-21T10:40:27;99833.16;;;9.33
80422;BMP280;69763;50.182;9.144;2023-11-21T10:42:53;99840.00;;;9.40
80422;BMP280;69763;50.182;9.144;2023-11-21T10:45:18;99833.09;;;9.39
80422;BMP280;69763;50.182;9.144;2023-11-21T10:47:44;99833.66;;;9.32
80422;BMP280;69763;50.182;9.144;2023-11-21T10:50:09;99829.38;;;9.17
80422;BMP280;69763;50.182;9.144;2023-11-21T10:52:35;99840.09;;;9.29
80422;BMP280;69763;50.182;9.144;2023-11-21T10:55:04;99834.66;;;9.53
80422;BMP280;69763;50.182;9.144;2023-11-21T10:57:37;99831.00;;;9.75
80422;BMP280;69763;50.182;9.144;2023-11-21T11:00:04;99829.53;;;9.92
80422;BMP280;69763;50.182;9.144;2023-11-21T11:02:30;99831.56;;;10.05
80422;BMP280;69763;50.182;9.144;2023-11-21T11:04:56;99829.00;;;10.13
80422;BMP280;69763;50.182;9.144;2023-11-21T11:07:26;99834.56;;;10.20
80422;BMP280;69763;50.182;9.144;2023-11-21T11:09:52;99831.75;;;10.26
80422;BMP280;69763;50.182;9.144;2023-11-21T11:12:19;99835.59;;;10.49
80422;BMP280;69763;50.182;9.144;2023-11-21T11:14:44;99843.72;;;10.81
80422;BMP280;69763;50.182;9.144;2023-11-21T11:17:10;99836.66;;;11.04
80422;BMP280;69763;50.182;9.144;2023-11-21T11:19:36;99836.16;;;11.19
80422;BMP280;69763;50.182;9.144;2023-11-21T11:22:10;99837.72;;;11.27
80422;BMP280;69763;50.182;9.144;2023-11-21T11:25:03;99829.38;;;11.12
80422;BMP280;69763;50.182;9.144;2023-11-21T11:27:38;99830.00;;;11.05
80422;BMP280;69763;50.182;9.144;2023-11-21T11:30:14;99830.75;;;11.19
80422;BMP280;69763;50.182;9.144;2023-11-21T11:32:49;99837.09;;;11.35
80422;BMP280;69763;50.182;9.144;2023-11-21T11:35:24;99840.00;;;11.10
80422;BMP280;69763;50.182;9.144;2023-11-21T11:37:51;99837.19;;;11.16
80422;BMP280;69763;50.182;9.144;2023-11-21T11:40:16;99835.00;;;11.27
80422;BMP280;69763;50.182;9.144;2023-11-21T11:42:56;99834.06;;;11.12
80422;BMP280;69763;50.182;9.144;2023-11-21T11:45:21;99841.13;;;11.02
80422;BMP280;69763;50.182;9.144;2023-11-21T11:47:48;99839.06;;;10.95
80422;BMP280;69763;50.182;9.144;2023-11-21T11:50:13;99839.66;;;10.87
80422;BMP280;69763;50.182;9.144;2023-11-21T11:52:40;99839.09;;;10.63
80422;BMP280;69763;50.182;9.144;2023-11-21T11:55:07;99832.78;;;10.55
80422;BMP280;69763;50.182;9.144;2023-11-21T11:57:33;99835.25;;;10.39
80422;BMP280;69763;50.182;9.144;2023-11-21T12:00:13;99836.34;;;10.18
80422;BMP280;69763;50.182;9.144;2023-11-21T12:02:39;99838.28;;;9.98
80422;BMP280;69763;50.182;9.144;2023-11-21T12:05:10;99839.94;;;9.88
80422;BMP280;69763;50.182;9.144;2023-11-21T12:07:49;99844.88;;;9.84
80422;BMP280;69763;50.182;9.144;2023-11-21T12:10:15;99850.88;;;9.77
80422;BMP280;69763;50.182;9.144;2023-11-21T12:12:45;99851.75;;;9.66
80422;BMP280;69763;50.182;9.144;2023-11-21T12:15:11;99847.84;;;9.62
80422;BMP280;69763;50.182;9.144;2023-11-21T12:17:38;99858.50;;;9.54
80422;BMP280;69763;50.182;9.144;2023-11-21T12:20:04;99857.09;;;9.48
80422;BMP280;69763;50.182;9.144;2023-11-21T12:22:30;99860.16;;;9.39
80422;BMP280;69763;50.182;9.144;2023-11-21T12:24:55;99852.09;;;9.33
80422;BMP280;69763;50.182;9.144;2023-11-21T12:27:21;99860.03;;;9.25
80422;BMP280;69763;50.182;9.144;2023-11-21T12:29:46;99858.41;;;9.17
80422;BMP280;69763;50.182;9.144;2023-11-21T12:32:11;99869.50;;;9.13
80422;BMP280;69763;50.182;9.144;2023-11-21T12:34:38;99877.13;;;9.09
80422;BMP280;69763;50.182;9.144;2023-11-21T12:37:04;99878.16;;;9.06
80422;BMP280;69763;50.182;9.144;2023-11-21T12:39:29;99883.78;;;9.08
80422;BMP280;69763;50.182;9.144;2023-11-21T12:41:55;99875.13;;;9.15
80422;BMP280;69763;50.182;9.144;2023-11-21T12:44:20;99878.75;;;9.23
80422;BMP280;69763;50.182;9.144;2023-11-21T12:46:45;99881.19;;;9.27
80422;BMP280;69763;50.182;9.144;2023-11-21T12:49:11;99879.38;;;9.35
80422;BMP280;69763;50.182;9.144;2023-11-21T12:51:38;99880.31;;;9.38
80422;BMP280;69763;50.182;9.144;2023-11-21T12:54:04;99882.75;;;9.41
80422;BMP280;69763;50.182;9.144;2023-11-21T12:56:29;99883.22;;;9.45
80422;BMP280;69763;50.182;9.144;2023-11-21T12:58:54;99879.72;;;9.50
80422;BMP280;69763;50.182;9.144;2023-11-21T13:01:20;99886.06;;;9.53
80422;BMP280;69763;50.182;9.144;2023-11-21T13:03:48;99890.47;;;9.56
80422;BMP280;69763;50.182;9.144;2023-11-21T13:06:15;99897.53;;;9.64
80422;BMP280;69763;50.182;9.144;2023-11-21T13:08:44;99894.59;;;9.62
80422;BMP280;69763;50.182;9.144;2023-11-21T13:11:10;99893.63;;;9.60
80422;BMP280;69763;50.182;9.144;2023-11-21T13:13:36;99903.75;;;9.54
80422;BMP280;69763;50.182;9.144;2023-11-21T13:16:02;99901.34;;;9.50
80422;BMP280;69763;50.182;9.144;2023-11-21T13:18:28;99901.13;;;9.48
80422;BMP280;69763;50.182;9.144;2023-11-21T13:20:53;99893.28;;;9.45
80422;BMP280;69763;50.182;9.144;2023-11-21T13:23:19;99898.28;;;9.41
80422;BMP280;69763;50.182;9.144;2023-11-21T13:25:46;99908.13;;;9.38
80422;BMP280;69763;50.182;9.144;2023-11-21T13:28:12;99908.91;;;9.33
80422;BMP280;69763;50.182;9.144;2023-11-21T13:30:38;99911.44;;;9.25
80422;BMP280;69763;50.182;9.144;2023-11-21T13:33:04;99914.19;;;9.20
80422;BMP280;69763;50.182;9.144;2023-11-21T13:35:29;99914.94;;;9.15
80422;BMP280;69763;50.182;9.144;2023-11-21T13:37:55;99914.25;;;9.14
80422;BMP280;69763;50.182;9.144;2023-11-21T13:40:21;99918.91;;;9.14
80422;BMP280;69763;50.182;9.144;2023-11-21T13:42:49;99919.91;;;9.11
80422;BMP280;69763;50.182;9.144;2023-11-21T13:45:14;99928.28;;;9.07
80422;BMP280;69763;50.182;9.144;2023-11-21T13:47:39;99929.78;;;9.03
80422;BMP280;69763;50.182;9.144;2023-11-21T13:50:06;99930.06;;;8.99
80422;BMP280;69763;50.182;9.144;2023-11-21T13:52:31;99932.53;;;8.97
80422;BMP280;69763;50.182;9.144;2023-11-21T13:54:57;99936.00;;;8.92
80422;BMP280;69763;50.182;9.144;2023-11-21T13:57:22;99945.38;;;8.91
80422;BMP280;69763;50.182;9.144;2023-11-21T13:59:49;99945.66;;;8.88
80422;BMP280;69763;50.182;9.144;2023-11-21T14:02:14;99953.50;;;8.85
80422;BMP280;69763;50.182;9.144;2023-11-21T14:04:39;99949.34;;;8.84
80422;BMP280;69763;50.182;9.144;2023-11-21T14:07:05;99961.66;;;8.80
80422;BMP280;69763;50.182;9.144;2023-11-21T14:09:30;99955.78;;;8.76
80422;BMP280;69763;50.182;9.144;2023-11-21T14:11:56;99954.59;;;8.71
80422;BMP280;69763;50.182;9.144;2023-11-21T14:14:22;99958.28;;;8.68